Time;durP1;ratioP1;P1;durP2;ratioP2;P2;SDS_P1;SDS_P2;PMS_P1;PMS_P2;Temp;Humidity;BMP_temperature;BMP_pressure;BME280_temperature;BME280_humidity;BME280_pressure;Samples;Min_cycle;Max_cycle;Signal;HPM_P1;HPM_P2
2023/03/31 00:00:59;;;;;;;5.57;2.20;;;12.90;99.90;;;;;;5076536;28;20942;-56
2023/03/31 00:03:26;;;;;;;2.67;1.03;;;12.90;99.90;;;;;;5076337;28;21016;-56
2023/03/31 00:05:57;;;;;;;5.13;1.60;;;12.90;99.90;;;;;;5076906;28;20447;-56
2023/03/31 00:08:24;;;;;;;5.00;1.40;;;12.90;99.90;;;;;;5076472;28;20928;-56
2023/03/31 00:10:52;;;;;;;7.80;1.50;;;12.90;99.90;;;;;;5076708;28;20470;-56
2023/03/31 00:13:18;;;;;;;3.83;1.20;;;12.90;99.90;;;;;;5076541;28;20505;-56
2023/03/31 00:15:45;;;;;;;9.17;1.13;;;12.90;99.90;;;;;;5076536;28;20452;-56
2023/03/31 00:18:12;;;;;;;4.90;1.30;;;12.90;99.90;;;;;;5076699;28;20530;-56
2023/03/31 00:20:41;;;;;;;4.50;1.47;;;12.90;99.90;;;;;;5076389;28;20829;-56
2023/03/31 00:23:09;;;;;;;4.50;1.00;;;12.80;99.90;;;;;;5076186;28;20485;-56
2023/03/31 00:25:39;;;;;;;5.83;1.43;;;12.80;99.90;;;;;;5076289;28;20934;-56
2023/03/31 00:28:07;;;;;;;3.80;1.57;;;12.80;99.90;;;;;;5076274;28;20871;-56
2023/03/31 00:30:33;;;;;;;4.57;1.10;;;12.90;99.90;;;;;;5076276;28;20448;-56
2023/03/31 00:33:00;;;;;;;8.97;1.93;;;12.80;99.90;;;;;;5076239;28;20468;-56
2023/03/31 00:35:27;;;;;;;3.30;0.90;;;12.80;99.90;;;;;;5076196;28;20785;-56
2023/03/31 00:37:56;;;;;;;5.60;1.40;;;12.80;99.90;;;;;;5076182;28;20441;-56
2023/03/31 00:40:23;;;;;;;11.40;1.83;;;12.90;99.90;;;;;;5075782;28;20543;-56
2023/03/31 00:42:50;;;;;;;3.50;1.27;;;12.90;99.90;;;;;;5075531;28;21017;-56
2023/03/31 00:45:29;;;;;;;4.40;1.30;;;12.90;99.90;;;;;;5075952;28;20467;-56
2023/03/31 00:48:03;;;;;;;3.80;1.50;;;12.90;99.90;;;;;;5075980;28;20490;-56
2023/03/31 00:50:34;;;;;;;5.43;1.37;;;12.90;99.90;;;;;;5075615;28;20814;-56
2023/03/31 00:53:05;;;;;;;4.57;1.60;;;13.00;99.90;;;;;;5075788;28;20472;-56
2023/03/31 00:55:37;;;;;;;9.13;1.60;;;13.00;99.90;;;;;;5075799;28;20425;-56
2023/03/31 00:58:06;;;;;;;5.70;1.23;;;13.00;99.90;;;;;;5075804;28;20432;-56
2023/03/31 01:00:34;;;;;;;8.80;1.17;;;13.00;99.90;;;;;;5075706;28;20473;-56
2023/03/31 01:03:05;;;;;;;4.67;1.40;;;13.00;99.90;;;;;;5075525;28;20549;-57
2023/03/31 01:05:36;;;;;;;3.53;1.33;;;13.00;99.90;;;;;;5075636;28;20433;-56
2023/03/31 01:08:05;;;;;;;9.63;2.30;;;13.00;99.90;;;;;;5075624;28;20433;-56
2023/03/31 01:10:40;;;;;;;9.87;1.67;;;13.00;99.90;;;;;;5075559;28;20536;-56
2023/03/31 01:13:09;;;;;;;3.97;1.90;;;13.00;99.90;;;;;;5075195;28;20978;-56
2023/03/31 01:15:38;;;;;;;6.20;1.80;;;13.10;99.90;;;;;;5075153;28;20942;-55
2023/03/31 01:18:06;;;;;;;4.43;1.30;;;13.00;99.90;;;;;;5075399;28;20455;-55
2023/03/31 01:20:41;;;;;;;4.60;2.07;;;13.00;99.90;;;;;;5075343;28;20813;-56
2023/03/31 01:23:50;;;;;;;5.90;2.43;;;13.00;99.90;;;;;;5075168;28;20533;-56
2023/03/31 01:26:57;;;;;;;9.00;1.77;;;13.00;99.90;;;;;;5075251;28;20455;-56
2023/03/31 01:29:48;;;;;;;13.73;2.10;;;12.90;99.90;;;;;;5072681;28;20461;-56
2023/03/31 01:32:35;;;;;;;7.43;2.30;;;12.90;99.90;;;;;;5075225;28;20832;-56
2023/03/31 01:35:31;;;;;;;4.50;1.40;;;12.90;99.90;;;;;;5075105;28;20440;-56
2023/03/31 01:38:33;;;;;;;6.07;2.17;;;12.90;99.90;;;;;;5074463;28;20946;-55
2023/03/31 01:41:17;;;;;;;8.27;2.20;;;13.00;99.90;;;;;;5075236;28;20420;-56
2023/03/31 01:43:49;;;;;;;10.17;2.40;;;12.90;99.90;;;;;;5074707;28;20487;-55
2023/03/31 01:46:22;;;;;;;9.13;2.57;;;12.90;99.90;;;;;;5074862;28;20487;-55
2023/03/31 01:48:57;;;;;;;8.03;2.00;;;12.80;99.90;;;;;;5074854;28;20425;-55
2023/03/31 01:51:32;;;;;;;6.33;2.00;;;12.80;99.90;;;;;;5074488;28;20790;-55
2023/03/31 01:54:06;;;;;;;11.40;2.60;;;12.90;99.90;;;;;;5074411;28;20448;-55
2023/03/31 01:56:39;;;;;;;9.40;2.03;;;12.80;99.90;;;;;;5074614;28;20433;-55
2023/03/31 01:59:11;;;;;;;9.13;2.30;;;12.80;99.90;;;;;;5074691;28;20436;-56
2023/03/31 02:01:42;;;;;;;8.23;2.50;;;12.80;99.90;;;;;;5074924;28;20422;-55
2023/03/31 02:04:15;;;;;;;7.37;2.37;;;12.80;99.90;;;;;;5074400;28;20487;-56
2023/03/31 02:06:48;;;;;;;11.60;2.20;;;12.80;99.90;;;;;;5074429;28;20440;-55
2023/03/31 02:09:19;;;;;;;7.83;2.10;;;12.70;99.90;;;;;;5074511;28;20460;-55
2023/03/31 02:11:49;;;;;;;9.07;2.37;;;12.70;99.90;;;;;;5074385;28;20460;-55
2023/03/31 02:14:21;;;;;;;11.23;2.00;;;12.70;99.90;;;;;;5074158;28;20476;-55
2023/03/31 02:16:57;;;;;;;9.83;2.20;;;12.70;99.90;;;;;;5074508;28;20425;-55
2023/03/31 02:19:27;;;;;;;11.20;2.40;;;12.70;99.90;;;;;;5074299;28;20447;-56
2023/03/31 02:21:55;;;;;;;9.17;2.40;;;12.70;99.90;;;;;;5074379;28;20542;-55
2023/03/31 02:24:26;;;;;;;10.07;2.50;;;12.60;99.90;;;;;;5073786;28;21062;-56
2023/03/31 02:27:01;;;;;;;14.50;2.80;;;12.70;99.90;;;;;;5074082;28;20449;-56
2023/03/31 02:29:27;;;;;;;10.13;2.27;;;12.70;99.90;;;;;;5074069;28;20432;-56
2023/03/31 02:32:01;;;;;;;16.07;2.90;;;12.70;99.90;;;;;;5074621;28;20464;-56
2023/03/31 02:34:27;;;;;;;11.33;2.63;;;12.70;99.90;;;;;;5073907;28;20536;-56
2023/03/31 02:36:54;;;;;;;12.47;2.10;;;12.70;99.90;;;;;;5073839;28;20444;-56
2023/03/31 02:39:26;;;;;;;10.27;2.63;;;12.80;99.90;;;;;;5073615;28;20463;-56
2023/03/31 02:41:55;;;;;;;10.10;2.17;;;12.80;99.90;;;;;;5073915;28;20438;-56
2023/03/31 02:44:22;;;;;;;11.77;2.73;;;12.80;99.90;;;;;;5073747;28;20571;-56
2023/03/31 02:46:49;;;;;;;10.83;2.30;;;12.70;99.90;;;;;;5073808;28;20862;-56
2023/03/31 02:49:18;;;;;;;13.70;4.20;;;12.70;99.90;;;;;;5074020;28;20505;-55
2023/03/31 02:52:05;;;;;;;10.50;2.77;;;12.70;99.90;;;;;;5073595;28;20471;-56
2023/03/31 02:55:14;;;;;;;6.93;2.10;;;12.70;99.90;;;;;;5073635;28;20461;-56
2023/03/31 02:58:11;;;;;;;9.00;2.23;;;12.70;99.90;;;;;;5068563;28;20864;-56
2023/03/31 03:00:49;;;;;;;10.30;2.50;;;12.70;99.90;;;;;;5073678;28;20774;-56
2023/03/31 03:03:32;;;;;;;10.30;2.10;;;12.70;99.90;;;;;;5073128;28;21001;-56
2023/03/31 03:06:05;;;;;;;8.87;2.20;;;12.70;99.90;;;;;;5073308;28;20899;-56
2023/03/31 03:08:41;;;;;;;11.23;2.27;;;12.70;99.90;;;;;;5073556;28;20444;-56
2023/03/31 03:11:17;;;;;;;15.03;2.13;;;12.70;99.90;;;;;;5073543;28;20425;-56
2023/03/31 03:13:49;;;;;;;12.33;2.10;;;12.70;99.90;;;;;;5073108;28;21057;-55
2023/03/31 03:16:23;;;;;;;11.17;2.30;;;12.70;99.90;;;;;;5073418;28;20524;-56
2023/03/31 03:18:56;;;;;;;8.50;2.57;;;12.60;99.90;;;;;;5073447;28;20486;-56
2023/03/31 03:21:23;;;;;;;8.70;2.10;;;12.70;99.90;;;;;;5073298;28;20445;-56
2023/03/31 03:23:51;;;;;;;8.40;1.70;;;12.60;99.90;;;;;;5073079;28;20990;-56
2023/03/31 03:26:22;;;;;;;5.27;1.67;;;12.50;99.90;;;;;;5073377;28;20476;-56
2023/03/31 03:28:50;;;;;;;9.63;2.03;;;12.50;99.90;;;;;;5073304;28;20798;-56
2023/03/31 03:31:17;;;;;;;6.23;2.83;;;12.50;99.90;;;;;;5073317;28;20578;-56
2023/03/31 03:33:44;;;;;;;11.30;2.57;;;12.50;99.90;;;;;;5073150;28;20460;-56
2023/03/31 03:36:10;;;;;;;8.30;1.80;;;12.50;99.90;;;;;;5073290;28;20449;-56
2023/03/31 03:38:37;;;;;;;6.90;1.93;;;12.50;99.90;;;;;;5072968;28;20839;-56
2023/03/31 03:41:04;;;;;;;9.33;1.70;;;12.50;99.90;;;;;;5073252;28;20452;-55
2023/03/31 03:43:31;;;;;;;5.07;1.60;;;12.50;99.90;;;;;;5073001;28;20484;-55
2023/03/31 03:45:59;;;;;;;5.93;2.00;;;12.60;99.90;;;;;;5073038;28;20453;-56
2023/03/31 03:48:26;;;;;;;7.27;1.40;;;12.60;99.90;;;;;;5073125;28;20441;-56
2023/03/31 03:50:53;;;;;;;5.87;1.93;;;12.50;99.90;;;;;;5072766;28;20957;-55
2023/03/31 03:53:20;;;;;;;6.27;3.93;;;12.50;99.90;;;;;;5072858;28;20559;-56
2023/03/31 03:55:47;;;;;;;6.70;2.00;;;12.40;99.90;;;;;;5072964;28;20441;-55
2023/03/31 03:58:15;;;;;;;6.40;1.97;;;12.40;99.90;;;;;;5072930;28;20445;-56
2023/03/31 04:00:44;;;;;;;6.30;1.93;;;12.40;99.90;;;;;;5072889;28;20515;-56
2023/03/31 04:03:12;;;;;;;3.33;1.53;;;12.40;99.90;;;;;;5072755;28;20473;-56
2023/03/31 04:05:39;;;;;;;7.27;1.50;;;12.50;99.90;;;;;;5072615;28;20864;-56
2023/03/31 04:08:07;;;;;;;5.60;1.60;;;12.50;99.90;;;;;;5072845;28;20444;-56
2023/03/31 04:10:34;;;;;;;8.50;2.30;;;12.50;99.90;;;;;;5072474;28;20852;-56
2023/03/31 04:13:00;;;;;;;6.30;3.73;;;12.50;99.90;;;;;;5072711;28;20491;-56
2023/03/31 04:15:27;;;;;;;4.87;1.37;;;12.50;99.90;;;;;;5073427;28;20960;-56
2023/03/31 04:17:56;;;;;;;10.40;2.27;;;12.50;99.90;;;;;;5076480;28;20444;-55
2023/03/31 04:20:26;;;;;;;4.00;1.40;;;12.40;99.90;;;;;;5076511;28;20487;-55
2023/03/31 04:22:53;;;;;;;9.33;2.30;;;12.40;99.90;;;;;;5076446;28;20836;-56
2023/03/31 04:25:21;;;;;;;6.63;2.30;;;12.40;99.90;;;;;;5076313;28;20484;-55
2023/03/31 04:27:53;;;;;;;5.27;1.70;;;12.40;99.90;;;;;;5076262;28;20448;-56
2023/03/31 04:30:22;;;;;;;6.20;1.73;;;12.30;99.90;;;;;;5076343;28;20464;-56
2023/03/31 04:32:50;;;;;;;6.37;1.50;;;12.30;99.90;;;;;;5075897;28;20496;-56
2023/03/31 04:35:19;;;;;;;7.97;1.70;;;12.30;99.90;;;;;;5076191;28;20448;-56
2023/03/31 04:37:47;;;;;;;1.80;1.20;;;12.30;99.90;;;;;;5076231;28;20448;-56
2023/03/31 04:40:15;;;;;;;6.90;1.80;;;12.30;99.90;;;;;;5075776;28;20460;-56
2023/03/31 04:42:42;;;;;;;4.43;1.37;;;12.20;99.90;;;;;;5076019;28;20452;-56
2023/03/31 04:45:10;;;;;;;6.63;1.30;;;12.30;99.90;;;;;;5076055;28;20472;-56
2023/03/31 04:47:36;;;;;;;6.27;1.37;;;12.20;99.90;;;;;;5075989;28;20455;-55
2023/03/31 04:50:04;;;;;;;5.37;1.43;;;12.30;99.90;;;;;;5075982;28;20533;-56
2023/03/31 04:52:30;;;;;;;1.77;1.20;;;12.20;99.90;;;;;;5075896;28;20451;-56
2023/03/31 04:54:58;;;;;;;3.10;1.53;;;12.10;99.90;;;;;;5075574;28;20867;-56
2023/03/31 04:57:25;;;;;;;4.90;1.33;;;12.10;99.90;;;;;;5076111;28;20455;-56
2023/03/31 04:59:52;;;;;;;4.33;1.60;;;12.10;99.90;;;;;;5075753;28;20502;-56
2023/03/31 05:02:22;;;;;;;2.30;1.47;;;12.00;99.90;;;;;;5075867;28;20494;-56
2023/03/31 05:04:50;;;;;;;1.80;1.00;;;12.00;99.90;;;;;;5075819;28;20484;-56
2023/03/31 05:07:17;;;;;;;4.53;1.03;;;12.10;99.90;;;;;;5075583;28;20460;-56
2023/03/31 05:09:43;;;;;;;4.27;1.30;;;12.00;99.90;;;;;;5075473;28;20470;-56
2023/03/31 05:12:11;;;;;;;3.80;1.30;;;12.10;99.90;;;;;;5075765;28;20448;-56
2023/03/31 05:14:38;;;;;;;6.53;1.57;;;12.10;99.90;;;;;;5075387;28;20844;-56
2023/03/31 05:17:05;;;;;;;3.53;1.40;;;12.10;99.90;;;;;;5075761;28;20506;-56
2023/03/31 05:19:32;;;;;;;5.63;1.30;;;12.10;99.90;;;;;;5075565;28;20643;-56
2023/03/31 05:21:59;;;;;;;2.77;1.10;;;12.10;99.90;;;;;;5076314;28;20449;-56
2023/03/31 05:24:27;;;;;;;2.77;0.90;;;12.10;99.90;;;;;;5075484;28;20541;-56
2023/03/31 05:26:54;;;;;;;1.47;1.03;;;12.10;99.90;;;;;;5074573;28;20479;-56
2023/03/31 05:29:23;;;;;;;4.17;1.17;;;12.20;99.90;;;;;;5075326;28;20494;-55
2023/03/31 05:31:52;;;;;;;1.87;1.00;;;12.20;99.90;;;;;;5075428;28;20475;-55
2023/03/31 05:34:18;;;;;;;1.90;0.97;;;12.20;99.90;;;;;;5074882;28;20555;-55
2023/03/31 05:36:46;;;;;;;1.63;0.83;;;12.30;99.90;;;;;;5075119;28;20457;-55
2023/03/31 05:39:14;;;;;;;2.60;1.27;;;12.30;99.90;;;;;;5074765;28;20468;-55
2023/03/31 05:41:41;;;;;;;2.20;0.80;;;12.30;99.90;;;;;;5075095;28;20453;-55
2023/03/31 05:44:07;;;;;;;5.70;1.40;;;12.30;99.90;;;;;;5074871;28;20844;-56
2023/03/31 05:46:36;;;;;;;4.53;0.90;;;12.30;99.90;;;;;;5074968;28;20448;-56
2023/03/31 05:49:03;;;;;;;3.10;0.90;;;12.40;99.90;;;;;;5074892;28;20440;-55
2023/03/31 05:51:30;;;;;;;4.37;1.70;;;12.40;99.90;;;;;;5074861;28;20449;-56
2023/03/31 05:53:57;;;;;;;2.20;0.87;;;12.30;99.90;;;;;;5074877;28;20463;-56
2023/03/31 05:56:26;;;;;;;2.83;1.33;;;12.40;99.90;;;;;;5074915;28;20453;-55
2023/03/31 05:58:52;;;;;;;1.77;0.93;;;12.40;99.90;;;;;;5074911;28;20457;-55
2023/03/31 06:01:21;;;;;;;3.80;1.10;;;12.40;99.90;;;;;;5074646;28;20505;-56
2023/03/31 06:03:50;;;;;;;1.83;0.73;;;12.40;99.90;;;;;;5074628;28;20468;-56
2023/03/31 06:06:17;;;;;;;2.30;0.97;;;12.40;99.90;;;;;;5074539;28;20459;-55
2023/03/31 06:08:44;;;;;;;2.93;0.93;;;12.40;99.90;;;;;;5074513;28;20536;-55
2023/03/31 06:11:14;;;;;;;1.10;0.83;;;12.40;99.90;;;;;;5074120;28;20950;-56
2023/03/31 06:13:41;;;;;;;1.73;0.87;;;12.40;99.90;;;;;;5074520;28;20461;-56
2023/03/31 06:16:10;;;;;;;5.23;1.17;;;12.40;99.90;;;;;;5074513;28;20453;-56
2023/03/31 06:18:37;;;;;;;3.60;0.90;;;12.40;99.90;;;;;;5074366;28;20440;-56
2023/03/31 06:21:05;;;;;;;3.60;0.90;;;12.50;99.90;;;;;;5074158;28;20988;-56
2023/03/31 06:23:33;;;;;;;2.40;1.23;;;12.50;99.90;;;;;;5074349;28;20480;-56
2023/03/31 06:26:02;;;;;;;5.97;1.70;;;12.50;99.90;;;;;;5074190;28;20484;-56
2023/03/31 06:28:29;;;;;;;4.90;0.80;;;12.50;99.90;;;;;;5074123;28;20502;-56
2023/03/31 06:31:01;;;;;;;4.90;1.10;;;12.50;99.90;;;;;;5074029;28;20479;-56
2023/03/31 06:33:27;;;;;;;4.20;1.07;;;12.40;99.90;;;;;;5074138;28;20464;-55
2023/03/31 06:35:56;;;;;;;10.83;0.77;;;12.40;99.90;;;;;;5074150;28;20449;-55
2023/03/31 06:38:25;;;;;;;3.53;1.00;;;12.40;99.90;;;;;;5073921;28;20507;-55
2023/03/31 06:40:52;;;;;;;2.63;0.90;;;12.40;99.90;;;;;;5074332;28;20452;-56
2023/03/31 06:43:19;;;;;;;2.93;0.70;;;12.40;99.90;;;;;;5073959;28;20467;-56
2023/03/31 06:45:46;;;;;;;2.90;1.10;;;12.50;99.90;;;;;;5073801;28;20491;-56
2023/03/31 06:48:12;;;;;;;7.53;1.20;;;12.50;99.90;;;;;;5074045;28;20449;-56
2023/03/31 06:50:40;;;;;;;2.17;0.80;;;12.50;99.90;;;;;;5074029;28;20448;-56
2023/03/31 06:53:07;;;;;;;2.40;0.80;;;12.50;99.90;;;;;;5073871;28;20555;-56
2023/03/31 06:55:35;;;;;;;2.33;0.70;;;12.60;99.90;;;;;;5073646;28;20810;-56
2023/03/31 06:58:01;;;;;;;4.93;1.67;;;12.70;99.90;;;;;;5073473;28;20441;-56
2023/03/31 07:00:28;;;;;;;2.20;1.37;;;12.80;99.90;;;;;;5073294;28;20939;-56
2023/03/31 07:02:55;;;;;;;2.67;0.93;;;12.90;99.90;;;;;;5073489;28;20465;-56
2023/03/31 07:05:26;;;;;;;3.23;1.20;;;13.00;99.90;;;;;;5073508;28;20476;-55
2023/03/31 07:07:52;;;;;;;1.67;1.00;;;13.10;99.70;;;;;;5073547;28;20433;-56
2023/03/31 07:10:19;;;;;;;1.93;0.60;;;13.30;99.80;;;;;;5073439;28;20452;-56
2023/03/31 07:12:47;;;;;;;1.80;0.80;;;13.30;99.20;;;;;;5073378;28;20468;-56
2023/03/31 07:15:14;;;;;;;3.20;1.93;;;13.50;99.30;;;;;;5073471;28;20813;-56
2023/03/31 07:17:41;;;;;;;8.90;1.40;;;13.60;98.40;;;;;;5073425;28;20453;-56
2023/03/31 07:20:12;;;;;;;4.37;1.27;;;13.80;98.50;;;;;;5073305;28;20448;-56
2023/03/31 07:22:40;;;;;;;3.70;1.10;;;13.90;98.00;;;;;;5073262;28;20467;-56
2023/03/31 07:25:07;;;;;;;4.77;1.10;;;13.90;97.30;;;;;;5072834;28;21063;-56
2023/03/31 07:27:34;;;;;;;4.83;1.10;;;14.00;97.40;;;;;;5072957;28;20819;-57
2023/03/31 07:30:02;;;;;;;2.70;1.00;;;14.10;97.30;;;;;;5073288;28;20535;-56
2023/03/31 07:32:29;;;;;;;1.47;1.00;;;14.20;97.30;;;;;;5073219;28;20444;-56
2023/03/31 07:34:56;;;;;;;2.10;1.20;;;14.40;97.10;;;;;;5073394;28;20531;-56
2023/03/31 07:37:23;;;;;;;2.93;1.40;;;14.50;96.80;;;;;;5073960;28;20471;-55
2023/03/31 07:39:49;;;;;;;6.30;1.87;;;14.70;96.40;;;;;;5072777;28;20866;-56
2023/03/31 07:42:16;;;;;;;2.30;0.87;;;14.80;96.30;;;;;;5072902;28;20449;-56
2023/03/31 07:44:43;;;;;;;3.90;1.50;;;15.00;96.20;;;;;;5073002;28;20484;-56
2023/03/31 07:47:11;;;;;;;6.27;1.53;;;15.00;96.20;;;;;;5073124;28;20447;-56
2023/03/31 07:49:38;;;;;;;6.80;1.40;;;15.10;96.40;;;;;;5073155;28;20470;-56
2023/03/31 07:52:05;;;;;;;8.57;1.60;;;15.10;95.70;;;;;;5077000;28;20451;-56
2023/03/31 07:54:31;;;;;;;5.37;1.50;;;15.10;95.80;;;;;;5076981;28;20474;-56
2023/03/31 07:57:00;;;;;;;2.77;1.33;;;15.00;95.70;;;;;;5076926;28;20459;-56
2023/03/31 07:59:27;;;;;;;5.90;1.77;;;14.90;95.50;;;;;;5076984;28;20457;-56
2023/03/31 08:01:54;;;;;;;4.67;1.10;;;14.80;95.80;;;;;;5076890;28;20888;-55
2023/03/31 08:04:22;;;;;;;7.77;1.90;;;14.70;96.20;;;;;;5076778;28;20469;-57
2023/03/31 08:06:49;;;;;;;5.17;2.10;;;14.60;96.30;;;;;;5076595;28;20451;-56
2023/03/31 08:09:16;;;;;;;5.47;1.77;;;14.50;96.50;;;;;;5076845;28;20942;-56
2023/03/31 08:11:43;;;;;;;10.13;2.27;;;14.40;96.80;;;;;;5076931;28;20558;-56
2023/03/31 08:14:10;;;;;;;7.60;2.37;;;14.40;96.90;;;;;;5076513;28;21005;-56
2023/03/31 08:16:37;;;;;;;13.37;4.03;;;14.30;96.90;;;;;;5076632;28;20987;-56
2023/03/31 08:19:03;;;;;;;11.77;1.80;;;14.30;96.60;;;;;;5076753;28;20456;-56
2023/03/31 08:21:31;;;;;;;8.67;2.50;;;14.30;96.80;;;;;;5076670;28;20444;-56
2023/03/31 08:23:58;;;;;;;9.43;2.33;;;14.40;97.00;;;;;;5076737;28;20468;-56
2023/03/31 08:26:26;;;;;;;7.00;2.00;;;14.40;96.50;;;;;;5076516;28;20487;-56
2023/03/31 08:28:53;;;;;;;11.80;2.47;;;14.60;96.50;;;;;;5076726;28;20452;-56
2023/03/31 08:31:22;;;;;;;8.20;1.90;;;14.80;96.10;;;;;;5076496;28;20471;-56
2023/03/31 08:33:49;;;;;;;10.07;2.00;;;15.00;95.70;;;;;;5076375;28;20480;-56
2023/03/31 08:36:17;;;;;;;4.77;1.60;;;15.20;95.60;;;;;;5076619;28;20441;-56
2023/03/31 08:38:46;;;;;;;8.20;1.90;;;15.30;94.30;;;;;;5076491;28;20467;-56
2023/03/31 08:41:27;;;;;;;6.40;2.10;;;15.50;94.30;;;;;;5076479;28;20452;-56
2023/03/31 08:43:56;;;;;;;6.50;1.97;;;15.60;93.50;;;;;;5076378;28;20468;-56
2023/03/31 08:46:25;;;;;;;9.40;2.33;;;15.80;93.20;;;;;;5076346;28;20579;-58
2023/03/31 08:48:55;;;;;;;9.73;2.10;;;16.00;92.90;;;;;;5076570;28;20449;-56
2023/03/31 08:51:26;;;;;;;6.87;1.90;;;16.20;92.80;;;;;;5077601;28;20790;-56
2023/03/31 08:54:01;;;;;;;9.50;2.73;;;16.30;92.80;;;;;;5076169;28;20464;-56
2023/03/31 08:56:29;;;;;;;6.37;1.90;;;16.30;91.80;;;;;;5076068;28;20506;-56
2023/03/31 08:59:00;;;;;;;5.00;1.77;;;16.30;91.70;;;;;;5076645;28;20444;-56
2023/03/31 09:01:38;;;;;;;9.33;2.33;;;16.10;91.30;;;;;;5075871;28;20425;-56
2023/03/31 09:04:22;;;;;;;12.73;3.33;;;15.90;91.80;;;;;;5075774;28;20464;-56
2023/03/31 09:06:56;;;;;;;8.43;2.17;;;15.80;91.90;;;;;;5075448;28;20978;-56
2023/03/31 09:09:33;;;;;;;7.40;1.83;;;15.70;92.10;;;;;;5075768;28;20432;-55
2023/03/31 09:12:06;;;;;;;8.47;2.60;;;15.70;91.70;;;;;;5075639;28;20437;-56
2023/03/31 09:14:37;;;;;;;12.50;2.17;;;15.50;92.00;;;;;;5075547;28;20465;-56
2023/03/31 09:17:16;;;;;;;9.93;2.27;;;15.30;92.50;;;;;;5075609;28;20452;-56
2023/03/31 09:19:47;;;;;;;16.97;3.30;;;15.30;92.40;;;;;;5075482;28;20452;-56
2023/03/31 09:22:19;;;;;;;11.37;2.37;;;15.30;92.40;;;;;;5075491;28;20490;-56
2023/03/31 09:24:52;;;;;;;7.40;2.20;;;15.40;93.20;;;;;;5075264;28;20460;-56
2023/03/31 09:27:20;;;;;;;10.33;2.60;;;15.40;92.50;;;;;;5075094;28;20436;-56
2023/03/31 09:29:52;;;;;;;9.70;2.13;;;15.50;92.90;;;;;;5075303;28;20464;-56
2023/03/31 09:32:21;;;;;;;12.50;3.20;;;15.50;92.70;;;;;;5075238;28;20823;-56
2023/03/31 09:34:52;;;;;;;15.93;2.30;;;15.40;92.00;;;;;;5074723;28;20495;-56
2023/03/31 09:37:18;;;;;;;14.30;2.97;;;15.40;92.30;;;;;;5075157;28;20439;-56
2023/03/31 09:39:45;;;;;;;7.20;1.90;;;15.20;92.70;;;;;;5075470;28;20449;-56
2023/03/31 09:42:14;;;;;;;4.30;1.60;;;15.00;94.70;;;;;;5074951;28;20531;-55
2023/03/31 09:44:44;;;;;;;4.67;2.07;;;14.50;95.30;;;;;;5075113;28;20486;-54
2023/03/31 09:47:18;;;;;;;7.80;2.07;;;14.10;96.70;;;;;;5074882;28;20444;-55
2023/03/31 09:49:46;;;;;;;12.20;3.13;;;13.80;97.40;;;;;;5074923;28;20503;-56
2023/03/31 09:52:23;;;;;;;13.03;2.50;;;13.80;99.20;;;;;;5074470;28;20965;-55
2023/03/31 09:54:51;;;;;;;9.60;2.37;;;13.80;99.90;;;;;;5074713;28;20440;-55
2023/03/31 09:57:27;;;;;;;12.57;2.47;;;13.90;99.20;;;;;;5074694;28;20476;-56
2023/03/31 10:00:01;;;;;;;12.10;3.43;;;14.00;99.60;;;;;;5074632;28;20433;-56
2023/03/31 10:02:35;;;;;;;12.07;2.13;;;14.00;99.10;;;;;;5074541;28;20437;-56
2023/03/31 10:05:03;;;;;;;9.40;2.90;;;14.00;97.90;;;;;;5074468;28;20519;-56
2023/03/31 10:07:30;;;;;;;11.17;3.17;;;14.10;97.70;;;;;;5074531;28;20500;-55
2023/03/31 10:09:57;;;;;;;18.37;3.07;;;14.10;97.40;;;;;;5074410;28;20502;-56
2023/03/31 10:12:28;;;;;;;17.80;4.63;;;14.30;97.60;;;;;;5074200;28;20453;-57
2023/03/31 10:15:11;;;;;;;6.83;2.10;;;14.60;97.80;;;;;;5073789;28;20444;-56
2023/03/31 10:17:43;;;;;;;13.70;3.20;;;14.90;96.10;;;;;;5074346;28;20425;-55
2023/03/31 10:20:21;;;;;;;7.53;2.30;;;15.20;96.00;;;;;;5074350;28;20429;-55
2023/03/31 10:22:48;;;;;;;8.87;3.87;;;15.50;95.50;;;;;;5074200;28;20543;-56
2023/03/31 10:25:17;;;;;;;10.63;2.40;;;15.70;94.40;;;;;;5074068;28;20491;-56
2023/03/31 10:27:49;;;;;;;7.23;2.43;;;16.00;93.60;;;;;;5074108;28;20456;-56
2023/03/31 10:30:21;;;;;;;7.33;2.43;;;16.20;93.20;;;;;;5074087;28;20448;-56
2023/03/31 10:32:48;;;;;;;11.60;2.30;;;16.30;91.50;;;;;;5073978;28;20518;-56
2023/03/31 10:35:24;;;;;;;5.80;1.87;;;16.20;90.40;;;;;;5073943;28;20449;-55
2023/03/31 10:37:54;;;;;;;4.10;1.50;;;15.70;91.40;;;;;;5073930;28;20437;-55
2023/03/31 10:40:24;;;;;;;3.80;1.30;;;14.60;93.40;;;;;;5073911;28;20776;-55
2023/03/31 10:43:02;;;;;;;3.43;1.20;;;13.90;96.30;;;;;;5073721;28;20514;-55
2023/03/31 10:45:30;;;;;;;7.33;1.40;;;13.50;97.90;;;;;;5073760;28;20521;-55
2023/03/31 10:48:00;;;;;;;6.27;1.43;;;13.10;98.10;;;;;;5073964;28;20456;-56
2023/03/31 10:50:29;;;;;;;5.97;1.23;;;12.90;99.20;;;;;;5073454;28;20862;-55
2023/03/31 10:53:02;;;;;;;3.73;1.10;;;12.90;99.20;;;;;;5073672;28;20566;-56
2023/03/31 10:55:34;;;;;;;7.03;1.33;;;13.00;98.50;;;;;;5073741;28;20806;-55
2023/03/31 10:58:14;;;;;;;4.60;1.50;;;13.00;98.10;;;;;;5073427;28;20992;-56
2023/03/31 11:00:58;;;;;;;5.97;1.40;;;13.10;98.70;;;;;;5074213;28;20441;-55
2023/03/31 11:03:53;;;;;;;4.37;1.53;;;13.20;97.00;;;;;;5073626;28;20467;-56
2023/03/31 11:06:26;;;;;;;4.67;1.03;;;13.20;96.40;;;;;;5073733;28;20468;-55
2023/03/31 11:09:05;;;;;;;2.97;1.23;;;13.30;96.70;;;;;;5073357;28;20911;-55
2023/03/31 11:11:48;;;;;;;4.40;1.50;;;13.40;96.90;;;;;;5073620;28;20447;-56
2023/03/31 11:14:24;;;;;;;6.57;1.50;;;13.60;97.50;;;;;;5073673;28;20468;-56
2023/03/31 11:16:58;;;;;;;4.50;0.97;;;13.80;97.00;;;;;;5073245;28;20901;-56
2023/03/31 11:19:36;;;;;;;5.43;1.80;;;14.00;96.10;;;;;;5073487;28;20432;-56
2023/03/31 11:22:12;;;;;;;5.67;1.43;;;14.20;96.80;;;;;;5073579;28;20524;-56
2023/03/31 11:25:11;;;;;;;3.43;1.10;;;14.50;96.40;;;;;;5072566;28;20464;-56
2023/03/31 11:27:52;;;;;;;4.47;1.30;;;14.70;94.10;;;;;;5073678;28;20549;-56
2023/03/31 11:30:25;;;;;;;7.47;2.00;;;14.90;93.90;;;;;;5073421;28;20857;-56
2023/03/31 11:33:05;;;;;;;10.33;2.00;;;15.10;93.60;;;;;;5073338;28;20472;-56
2023/03/31 11:35:52;;;;;;;5.67;1.80;;;15.40;92.90;;;;;;5073500;28;20429;-56
2023/03/31 11:38:38;;;;;;;5.50;2.00;;;15.40;92.50;;;;;;5072986;28;20468;-56
2023/03/31 11:41:10;;;;;;;8.40;2.00;;;15.50;92.60;;;;;;5073001;28;20850;-55
2023/03/31 11:43:43;;;;;;;6.57;1.57;;;15.60;92.20;;;;;;5073227;28;20475;-56
2023/03/31 11:46:15;;;;;;;7.93;2.10;;;15.60;92.30;;;;;;5073256;28;20460;-56
2023/03/31 11:48:47;;;;;;;9.47;2.67;;;15.80;93.10;;;;;;5072936;28;20801;-56
2023/03/31 11:51:18;;;;;;;7.83;2.30;;;15.80;92.20;;;;;;5073106;28;20483;-56
2023/03/31 11:53:46;;;;;;;9.10;2.63;;;15.90;92.10;;;;;;5072979;28;20468;-56
2023/03/31 11:56:14;;;;;;;8.97;2.33;;;15.70;92.50;;;;;;5073073;28;20445;-56
2023/03/31 11:58:45;;;;;;;10.50;2.20;;;15.80;92.50;;;;;;5072855;28;20958;-56
2023/03/31 12:01:20;;;;;;;9.23;2.13;;;15.90;92.60;;;;;;5073030;28;20436;-56
2023/03/31 12:03:56;;;;;;;9.80;2.60;;;15.80;92.40;;;;;;5072991;28;20511;-56
2023/03/31 12:06:27;;;;;;;9.13;2.70;;;15.70;92.60;;;;;;5072577;28;20977;-56
2023/03/31 12:09:04;;;;;;;10.40;2.53;;;15.50;93.00;;;;;;5073104;28;20433;-55
2023/03/31 12:11:38;;;;;;;11.23;2.63;;;15.30;94.10;;;;;;5072960;28;20941;-55
2023/03/31 12:14:17;;;;;;;11.07;2.67;;;15.60;93.70;;;;;;5072899;28;20476;-56
2023/03/31 12:16:47;;;;;;;7.40;1.83;;;16.20;92.80;;;;;;5073030;28;20432;-56
2023/03/31 12:19:18;;;;;;;7.57;2.57;;;16.50;90.50;;;;;;5072550;28;20807;-56
2023/03/31 12:21:50;;;;;;;6.70;1.97;;;17.00;90.40;;;;;;5073010;28;20449;-56
2023/03/31 12:24:17;;;;;;;10.33;1.90;;;17.20;84.20;;;;;;5072480;28;20866;-56
2023/03/31 12:26:51;;;;;;;5.53;1.90;;;17.20;84.20;;;;;;5072418;28;20534;-56
2023/03/31 12:29:27;;;;;;;7.57;1.57;;;17.10;79.60;;;;;;5072678;28;20478;-56
2023/03/31 12:31:57;;;;;;;4.30;1.70;;;17.00;81.60;;;;;;5072769;28;20421;-55
2023/03/31 12:34:27;;;;;;;4.77;1.73;;;16.90;81.50;;;;;;5072650;28;20471;-55
2023/03/31 12:37:09;;;;;;;6.67;2.20;;;16.90;80.30;;;;;;5074397;28;20451;-56
2023/03/31 12:39:43;;;;;;;5.00;1.70;;;16.90;81.50;;;;;;5076113;28;20517;-56
2023/03/31 12:42:40;;;;;;;7.80;2.00;;;16.80;82.00;;;;;;5076261;28;20444;-56
2023/03/31 12:45:14;;;;;;;10.10;2.30;;;16.60;84.30;;;;;;5076167;28;20490;-56
2023/03/31 12:47:53;;;;;;;10.13;2.33;;;16.60;85.80;;;;;;5076271;28;20478;-56
2023/03/31 12:50:32;;;;;;;8.37;2.13;;;16.40;88.20;;;;;;5076042;28;20437;-56
2023/03/31 12:53:07;;;;;;;5.37;1.80;;;16.40;86.40;;;;;;5075599;28;20842;-56
2023/03/31 12:55:37;;;;;;;5.70;1.40;;;16.30;86.20;;;;;;5076417;28;20438;-55
2023/03/31 12:58:38;;;;;;;8.50;1.37;;;16.30;83.10;;;;;;5075590;28;20880;-55
2023/03/31 13:01:09;;;;;;;6.87;1.47;;;16.70;81.60;;;;;;5042824;28;20827;-56
2023/03/31 13:04:07;;;;;;;11.20;2.30;;;17.20;79.50;;;;;;5075493;28;21001;-56
2023/03/31 13:06:52;;;;;;;8.83;1.50;;;17.60;75.50;;;;;;5075634;28;20481;-56